Time;durP1;ratioP1;P1;durP2;ratioP2;P2;SDS_P1;SDS_P2;PMS_P1;PMS_P2;Temp;Humidity;BMP_temperature;BMP_pressure;BME280_temperature;BME280_humidity;BME280_pressure;Samples;Min_cycle;Max_cycle;Signal;HPM_P1;HPM_P2
2021/04/11 00:02:08;;;;;;;;;;;;;;;1.63;100.00;99066.13;5037117;28;20075;-82
2021/04/11 00:04:35;;;;;;;;;;;;;;;1.60;100.00;99066.84;5086008;28;19924;-83
2021/04/11 00:07:02;;;;;;;;;;;;;;;1.73;100.00;99064.72;5053306;28;20413;-82
2021/04/11 00:09:28;;;;;;;;;;;;;;;1.84;100.00;99063.75;5053341;28;19929;-82
2021/04/11 00:11:55;;;;;;;;;;;;;;;1.96;100.00;99061.97;5054478;28;20007;-83
2021/04/11 00:14:22;;;;;;;;;;;;;;;1.97;100.00;99058.06;5053391;28;19939;-82
2021/04/11 00:16:48;;;;;;;;;;;;;;;2.04;100.00;99059.00;5054234;28;20081;-82
2021/04/11 00:19:15;;;;;;;;;;;;;;;2.08;100.00;99053.53;5053422;28;19929;-82
2021/04/11 00:21:41;;;;;;;;;;;;;;;2.13;100.00;99051.28;5037071;28;19925;-82
2021/04/11 00:24:08;;;;;;;;;;;;;;;2.16;100.00;99049.72;5036749;28;19951;-82
2021/04/11 00:26:34;;;;;;;;;;;;;;;2.01;100.00;99045.16;5086272;28;20445;-82
2021/04/11 00:29:03;;;;;;;;;;;;;;;1.95;100.00;99041.91;5053629;28;19932;-82
2021/04/11 00:31:29;;;;;;;;;;;;;;;1.88;100.00;99039.81;5053057;28;20019;-82
2021/04/11 00:33:56;;;;;;;;;;;;;;;1.92;100.00;99044.59;5054011;28;19940;-82
2021/04/11 00:36:23;;;;;;;;;;;;;;;1.81;100.00;99033.38;5069376;28;19925;-82
2021/04/11 00:38:49;;;;;;;;;;;;;;;1.69;100.00;99036.31;5052652;28;20357;-82
2021/04/11 00:41:19;;;;;;;;;;;;;;;1.68;100.00;99043.78;5052703;28;19987;-82
2021/04/11 00:44:11;;;;;;;;;;;;;;;1.60;100.00;99039.31;5069130;28;19964;-82
2021/04/11 00:46:46;;;;;;;;;;;;;;;1.73;100.00;99039.91;5052719;28;19924;-82
2021/04/11 00:49:16;;;;;;;;;;;;;;;1.83;100.00;99033.81;5053961;28;19924;-82
2021/04/11 00:51:43;;;;;;;;;;;;;;;1.88;100.00;99038.25;5069834;28;19931;-82
2021/04/11 00:54:10;;;;;;;;;;;;;;;1.88;100.00;99042.56;5035968;28;19931;-82
2021/04/11 00:56:38;;;;;;;;;;;;;;;1.95;100.00;99038.34;5069642;28;19925;-82
2021/04/11 00:59:08;;;;;;;;;;;;;;;1.98;100.00;99043.13;5052620;28;19924;-82
2021/04/11 01:01:39;;;;;;;;;;;;;;;2.01;100.00;99036.88;5052278;28;19924;-82
2021/04/11 01:04:06;;;;;;;;;;;;;;;1.87;100.00;99029.16;5052435;28;19976;-82
2021/04/11 01:06:38;;;;;;;;;;;;;;;1.73;100.00;99024.19;5052608;28;19964;-82
2021/04/11 01:09:09;;;;;;;;;;;;;;;1.65;100.00;99030.72;5086138;28;20058;-82
2021/04/11 01:11:36;;;;;;;;;;;;;;;1.76;100.00;99020.72;5053428;28;19925;-82
2021/04/11 01:14:05;;;;;;;;;;;;;;;1.81;100.00;99031.44;5052594;28;19925;-82
2021/04/11 01:16:35;;;;;;;;;;;;;;;2.01;100.00;99025.84;5069068;28;19925;-82
2021/04/11 01:19:05;;;;;;;;;;;;;;;1.92;100.00;99022.56;5052377;28;19925;-82
2021/04/11 01:21:45;;;;;;;;;;;;;;;1.75;100.00;99016.38;5052208;28;19925;-82
2021/04/11 01:24:15;;;;;;;;;;;;;;;1.78;100.00;99023.91;5052571;28;19929;-82
2021/04/11 01:26:50;;;;;;;;;;;;;;;1.53;100.00;99021.88;5052084;28;19984;-82
2021/04/11 01:29:17;;;;;;;;;;;;;;;1.52;100.00;99023.00;5053609;28;19925;-82
2021/04/11 01:31:44;;;;;;;;;;;;;;;1.60;100.00;99016.47;5052101;28;19936;-82
2021/04/11 01:34:13;;;;;;;;;;;;;;;1.84;100.00;99019.69;5035700;28;19925;-82
2021/04/11 01:36:41;;;;;;;;;;;;;;;1.73;100.00;99024.19;5068822;28;20431;-82
2021/04/11 01:39:12;;;;;;;;;;;;;;;1.72;100.00;99030.88;5052347;28;19935;-82
2021/04/11 01:41:41;;;;;;;;;;;;;;;1.88;100.00;99021.69;5053631;28;19925;-82
2021/04/11 01:44:10;;;;;;;;;;;;;;;1.91;100.00;99020.97;5035230;28;20363;-82
2021/04/11 01:46:37;;;;;;;;;;;;;;;1.96;100.00;99028.91;5053599;28;19932;-82
2021/04/11 01:49:04;;;;;;;;;;;;;;;2.04;100.00;99031.44;5085759;28;19929;-82
2021/04/11 01:51:34;;;;;;;;;;;;;;;1.91;100.00;99026.47;5052075;28;19978;-82
2021/04/11 01:54:06;;;;;;;;;;;;;;;2.01;100.00;99014.84;5052888;28;19944;-82
2021/04/11 01:56:33;;;;;;;;;;;;;;;1.74;100.00;99025.78;5053590;28;19924;-83
2021/04/11 01:59:09;;;;;;;;;;;;;;;1.66;100.00;99031.53;5035164;28;19932;-82
2021/04/11 02:01:39;;;;;;;;;;;;;;;1.79;100.00;99031.00;5068514;28;19936;-82
2021/04/11 02:04:07;;;;;;;;;;;;;;;1.79;100.00;99024.69;5085699;28;19932;-82
2021/04/11 02:06:42;;;;;;;;;;;;;;;1.85;100.00;99031.47;5038211;28;20006;-82
2021/04/11 02:09:19;;;;;;;;;;;;;;;1.89;100.00;99024.88;5068831;28;19983;-82
2021/04/11 02:12:06;;;;;;;;;;;;;;;2.02;100.00;99032.94;5055868;28;20010;-82
2021/04/11 02:14:39;;;;;;;;;;;;;;;2.06;100.00;99033.81;5067758;28;19991;-82
2021/04/11 02:17:06;;;;;;;;;;;;;;;2.21;100.00;99030.13;5051727;28;19932;-82
2021/04/11 02:19:33;;;;;;;;;;;;;;;2.28;100.00;99031.06;5037710;28;19925;-82
2021/04/11 02:22:01;;;;;;;;;;;;;;;1.98;100.00;99018.31;5055367;28;19933;-82
2021/04/11 02:24:29;;;;;;;;;;;;;;;1.81;100.00;99028.69;5038876;28;19936;-82
2021/04/11 02:26:56;;;;;;;;;;;;;;;1.75;100.00;99024.63;5088661;28;19932;-82
2021/04/11 02:29:24;;;;;;;;;;;;;;;1.73;100.00;99021.44;5054989;28;19925;-83
2021/04/11 02:31:51;;;;;;;;;;;;;;;1.71;100.00;99021.00;5072083;28;19925;-82
2021/04/11 02:34:25;;;;;;;;;;;;;;;1.73;100.00;99026.16;5055059;28;19954;-82
2021/04/11 02:36:57;;;;;;;;;;;;;;;1.73;100.00;99026.16;5055126;28;19932;-83
2021/04/11 02:39:27;;;;;;;;;;;;;;;1.72;100.00;99028.13;5038521;28;19947;-83
2021/04/11 02:41:56;;;;;;;;;;;;;;;1.69;100.00;99033.56;5055014;28;19924;-82
2021/04/11 02:44:26;;;;;;;;;;;;;;;1.62;100.00;99031.47;5054760;28;20066;-82
2021/04/11 02:46:53;;;;;;;;;;;;;;;1.61;100.00;99032.63;5071374;28;19972;-82
2021/04/11 02:49:21;;;;;;;;;;;;;;;1.66;100.00;99035.09;5055580;28;19924;-82
2021/04/11 02:51:50;;;;;;;;;;;;;;;1.69;100.00;99037.13;5056629;28;19925;-82
2021/04/11 02:54:20;;;;;;;;;;;;;;;1.70;100.00;99033.19;5037624;28;20277;-82
2021/04/11 02:56:50;;;;;;;;;;;;;;;1.74;100.00;99033.28;5038578;28;19951;-82
2021/04/11 02:59:24;;;;;;;;;;;;;;;1.83;100.00;99031.84;5054907;28;20021;-82
2021/04/11 03:01:58;;;;;;;;;;;;;;;1.82;100.00;99034.97;5071394;28;20422;-82
2021/04/11 03:04:26;;;;;;;;;;;;;;;1.70;100.00;99033.19;5088108;28;20418;-82
2021/04/11 03:07:00;;;;;;;;;;;;;;;1.60;100.00;99033.81;5054876;28;19925;-82
2021/04/11 03:09:32;;;;;;;;;;;;;;;1.52;100.00;99042.28;5053794;28;19925;-83
2021/04/11 03:12:02;;;;;;;;;;;;;;;1.43;100.00;99045.28;5037631;28;19925;-83
2021/04/11 03:14:34;;;;;;;;;;;;;;;1.37;100.00;99038.47;5021453;28;20360;-83
2021/04/11 03:17:09;;;;;;;;;;;;;;;1.34;100.00;99039.19;5054197;28;20265;-83
2021/04/11 03:19:42;;;;;;;;;;;;;;;1.35;100.00;99049.03;5037580;28;19925;-83
2021/04/11 03:22:10;;;;;;;;;;;;;;;1.39;100.00;99038.09;5054852;28;20356;-83
2021/04/11 03:24:37;;;;;;;;;;;;;;;1.34;100.00;99041.94;5054228;28;20294;-83
2021/04/11 03:27:23;;;;;;;;;;;;;;;1.32;100.00;99043.44;5037420;28;20319;-82
2021/04/11 03:30:00;;;;;;;;;;;;;;;1.29;100.00;99039.47;5087299;28;19925;-83
2021/04/11 03:32:31;;;;;;;;;;;;;;;1.26;100.00;99040.19;5070752;28;20023;-82
2021/04/11 03:35:03;;;;;;;;;;;;;;;1.24;100.00;99045.25;5039953;28;19952;-82
2021/04/11 03:37:31;;;;;;;;;;;;;;;1.19;100.00;99039.25;5053881;28;19931;-82
2021/04/11 03:39:59;;;;;;;;;;;;;;;1.25;100.00;99049.63;5053819;28;20350;-83
2021/04/11 03:42:33;;;;;;;;;;;;;;;1.28;100.00;99054.41;5037456;28;19932;-83
2021/04/11 03:45:00;;;;;;;;;;;;;;;1.33;100.00;99045.84;5053689;28;19931;-82
2021/04/11 03:47:42;;;;;;;;;;;;;;;1.27;100.00;99052.78;5053813;28;19925;-83
2021/04/11 03:50:14;;;;;;;;;;;;;;;1.26;100.00;99045.69;5054912;28;19948;-82
2021/04/11 03:52:55;;;;;;;;;;;;;;;1.28;100.00;99054.41;5087107;28;20011;-82
2021/04/11 03:55:24;;;;;;;;;;;;;;;1.15;100.00;99047.44;5053036;28;20009;-82
2021/04/11 03:57:54;;;;;;;;;;;;;;;1.08;100.00;99050.06;5053509;28;20023;-83
2021/04/11 04:00:35;;;;;;;;;;;;;;;1.08;100.00;99052.81;5054107;28;19924;-82
2021/04/11 04:03:11;;;;;;;;;;;;;;;1.12;100.00;99063.91;5048828;28;19932;-83
2021/04/11 04:06:04;;;;;;;;;;;;;;;1.15;100.00;99052.94;5038077;28;19928;-82
2021/04/11 04:08:31;;;;;;;;;;;;;;;1.04;100.00;99060.19;5036624;28;19924;-83
2021/04/11 04:11:01;;;;;;;;;;;;;;;1.01;100.00;99058.16;5053014;28;20023;-83
2021/04/11 04:13:50;;;;;;;;;;;;;;;0.97;100.00;99065.53;5053148;28;20418;-83
2021/04/11 04:16:29;;;;;;;;;;;;;;;0.97;100.00;99059.25;5042034;28;19925;-83
2021/04/11 04:18:59;;;;;;;;;;;;;;;0.95;100.00;99067.88;5052933;28;19925;-83
2021/04/11 04:21:29;;;;;;;;;;;;;;;1.02;100.00;99072.69;5054232;28;19925;-83
2021/04/11 04:24:14;;;;;;;;;;;;;;;0.87;100.00;99066.09;5052728;28;19936;-82
2021/04/11 04:26:48;;;;;;;;;;;;;;;0.86;100.00;99071.97;5069376;28;19925;-83
2021/04/11 04:29:45;;;;;;;;;;;;;;;0.79;100.00;99064.34;5052898;28;19931;-83
2021/04/11 04:32:27;;;;;;;;;;;;;;;0.77;100.00;99079.63;5053098;28;20035;-83
2021/04/11 04:35:13;;;;;;;;;;;;;;;0.85;100.00;99079.41;5043074;28;19978;-83
2021/04/11 04:37:50;;;;;;;;;;;;;;;0.88;100.00;99086.16;5020703;28;20380;-83
2021/04/11 04:40:38;;;;;;;;;;;;;;;0.86;100.00;99083.78;5052690;28;19936;-83
2021/04/11 04:43:13;;;;;;;;;;;;;;;0.79;100.00;99080.84;5053076;28;19924;-83
2021/04/11 04:45:55;;;;;;;;;;;;;;;0.79;100.00;99080.84;5036536;28;20055;-83
2021/04/11 04:48:29;;;;;;;;;;;;;;;0.70;100.00;99085.75;5052680;28;19932;-83
2021/04/11 04:51:04;;;;;;;;;;;;;;;0.77;100.00;99080.44;5052609;28;19928;-84
2021/04/11 04:53:33;;;;;;;;;;;;;;;0.68;100.00;99074.28;5020086;28;19974;-83
2021/04/11 04:56:06;;;;;;;;;;;;;;;0.63;100.00;99076.53;5052675;28;19925;-83
2021/04/11 04:58:40;;;;;;;;;;;;;;;0.65;100.00;99075.00;5086031;28;20291;-83
2021/04/11 05:01:22;;;;;;;;;;;;;;;0.55;100.00;99078.31;5052435;28;20372;-83
2021/04/11 05:04:01;;;;;;;;;;;;;;;0.55;100.00;99085.75;5070459;28;19967;-83
2021/04/11 05:06:35;;;;;;;;;;;;;;;0.49;100.00;99084.44;5036870;28;19983;-83
2021/04/11 05:09:14;;;;;;;;;;;;;;;0.48;100.00;99077.34;5021008;28;20015;-83
2021/04/11 05:11:45;;;;;;;;;;;;;;;0.44;100.00;99080.00;5085846;28;19951;-83
2021/04/11 05:14:20;;;;;;;;;;;;;;;0.45;100.00;99080.81;5052271;28;20295;-83
2021/04/11 05:16:48;;;;;;;;;;;;;;;0.44;100.00;99082.75;5069324;28;19932;-83
2021/04/11 05:19:20;;;;;;;;;;;;;;;0.46;100.00;99083.22;5085750;28;20070;-83
2021/04/11 05:22:00;;;;;;;;;;;;;;;0.45;100.00;99081.63;5052117;28;19925;-83
2021/04/11 05:24:31;;;;;;;;;;;;;;;0.45;100.00;99086.31;5036035;28;19933;-83
2021/04/11 05:27:24;;;;;;;;;;;;;;;0.43;100.00;99083.94;5052291;28;19931;-83
2021/04/11 05:30:08;;;;;;;;;;;;;;;0.37;100.00;99092.78;5039167;28;19925;-83
2021/04/11 05:32:35;;;;;;;;;;;;;;;0.43;100.00;99094.94;5035971;28;19943;-83
2021/04/11 05:35:02;;;;;;;;;;;;;;;0.47;100.00;99104.03;5035634;28;19925;-83
2021/04/11 05:37:38;;;;;;;;;;;;;;;0.48;100.00;99102.09;5051805;28;20018;-83
2021/04/11 05:40:05;;;;;;;;;;;;;;;0.48;100.00;99107.59;5085317;28;19925;-83
2021/04/11 05:42:53;;;;;;;;;;;;;;;0.49;100.00;99107.25;5052110;28;20491;-84
2021/04/11 05:45:23;;;;;;;;;;;;;;;0.45;100.00;99103.63;5019343;28;20015;-79
2021/04/11 05:48:05;;;;;;;;;;;;;;;0.42;100.00;99122.78;5027062;28;19973;-86
2021/04/11 05:50:49;;;;;;;;;;;;;;;0.56;100.00;99117.63;5039008;28;19925;-86
2021/04/11 05:54:01;;;;;;;;;;;;;;;0.68;100.00;99112.03;5053087;28;19929;-85
2021/04/11 05:56:32;;;;;;;;;;;;;;;0.71;100.00;99123.09;5048098;28;19925;-83
2021/04/11 05:59:02;;;;;;;;;;;;;;;0.87;100.00;99121.13;5055817;28;19929;-84
2021/04/11 06:01:55;;;;;;;;;;;;;;;0.82;100.00;99128.88;5065188;28;20349;-86
2021/04/11 06:04:31;;;;;;;;;;;;;;;0.77;100.00;99121.69;5055032;28;19928;-86
2021/04/11 06:07:10;;;;;;;;;;;;;;;1.01;100.00;99128.91;5089175;28;20384;-86
2021/04/11 06:09:45;;;;;;;;;;;;;;;1.23;100.00;99140.00;5078134;28;19925;-86
2021/04/11 06:12:17;;;;;;;;;;;;;;;1.08;100.00;99132.59;5071574;28;19929;-86
2021/04/11 06:15:04;;;;;;;;;;;;;;;1.16;100.00;99137.13;5055348;28;19932;-86
2021/04/11 06:17:31;;;;;;;;;;;;;;;1.19;100.00;99147.41;5040589;28;20323;-86
2021/04/11 06:19:58;;;;;;;;;;;;;;;1.11;100.00;99142.91;5044597;28;19924;-86
2021/04/11 06:22:33;;;;;;;;;;;;;;;1.17;100.00;99143.41;5054798;28;19925;-85
2021/04/11 06:25:03;;;;;;;;;;;;;;;1.30;100.00;99148.41;5038630;28;19925;-85
2021/04/11 06:27:48;;;;;;;;;;;;;;;1.47;100.00;99147.22;5040234;28;19925;-86
2021/04/11 06:30:17;;;;;;;;;;;;;;;1.78;100.00;99156.16;5038745;28;19995;-85
2021/04/11 06:32:47;;;;;;;;;;;;;;;2.25;100.00;99157.81;5054903;28;20930;-85
2021/04/11 06:35:15;;;;;;;;;;;;;;;2.44;100.00;99160.53;5055146;28;19925;-85
2021/04/11 06:37:44;;;;;;;;;;;;;;;2.22;100.00;99161.28;5040161;28;19925;-85
2021/04/11 06:40:24;;;;;;;;;;;;;;;2.02;100.00;99160.53;5054999;28;19928;-86
2021/04/11 06:43:13;;;;;;;;;;;;;;;1.97;100.00;99173.81;5054658;28;20453;-86
2021/04/11 06:45:44;;;;;;;;;;;;;;;2.30;100.00;99172.09;5054912;28;19925;-85
2021/04/11 06:48:16;;;;;;;;;;;;;;;3.55;100.00;99168.94;5059071;28;19933;-85
2021/04/11 06:50:52;;;;;;;;;;;;;;;4.51;100.00;99178.00;5054643;28;20368;-86
2021/04/11 06:53:28;;;;;;;;;;;;;;;5.41;100.00;99174.34;5037987;28;20364;-86
2021/04/11 06:55:54;;;;;;;;;;;;;;;6.41;100.00;99165.28;5071233;28;20273;-85
2021/04/11 06:58:35;;;;;;;;;;;;;;;6.83;100.00;99168.13;5055455;28;20384;-86
2021/04/11 07:01:01;;;;;;;;;;;;;;;7.46;100.00;99167.28;5071286;28;20334;-86
2021/04/11 07:03:43;;;;;;;;;;;;;;;7.48;100.00;99168.47;5037533;28;19925;-87
2021/04/11 07:06:10;;;;;;;;;;;;;;;8.14;100.00;99170.22;5054442;28;20299;-85
2021/04/11 07:08:40;;;;;;;;;;;;;;;8.73;100.00;99168.31;5031130;28;19929;-85
2021/04/11 07:11:12;;;;;;;;;;;;;;;8.09;100.00;99158.72;5055544;28;19956;-85
2021/04/11 07:13:46;;;;;;;;;;;;;;;8.35;100.00;99172.94;5054198;28;19931;-85
2021/04/11 07:16:13;;;;;;;;;;;;;;;7.72;100.00;99173.19;5052384;28;20451;-85
2021/04/11 07:19:02;;;;;;;;;;;;;;;7.48;100.00;99168.47;5086976;28;19929;-85
2021/04/11 07:21:47;;;;;;;;;;;;;;;7.88;100.00;99170.72;5071252;28;19925;-92
2021/04/11 07:24:20;;;;;;;;;;;;;;;8.97;100.00;99168.13;5070892;28;20356;-84
2021/04/11 07:26:57;;;;;;;;;;;;;;;9.52;100.00;99161.66;5065999;28;19929;-84
2021/04/11 07:29:29;;;;;;;;;;;;;;;9.13;100.00;99156.47;5053882;28;19971;-84
2021/04/11 07:32:11;;;;;;;;;;;;;;;9.22;100.00;99158.75;5054101;28;19929;-84
2021/04/11 07:34:43;;;;;;;;;;;;;;;9.87;100.00;99161.28;5087321;28;20319;-84
2021/04/11 07:37:28;;;;;;;;;;;;;;;9.67;100.00;99157.50;5054571;28;20051;-82
2021/04/11 07:40:13;;;;;;;;;;;;;;;9.48;100.00;99158.91;5045051;28;19925;-82
2021/04/11 07:43:09;;;;;;;;;;;;;;;9.09;100.00;99162.06;5055015;28;20404;-81
2021/04/11 07:45:54;;;;;;;;;;;;;;;8.40;100.00;99164.16;5032334;28;20410;-81
2021/04/11 07:48:30;;;;;;;;;;;;;;;8.65;100.00;99161.19;5027757;28;19930;-82
2021/04/11 07:51:01;;;;;;;;;;;;;;;8.65;100.00;99169.56;5032901;28;19925;-80
2021/04/11 07:53:37;;;;;;;;;;;;;;;8.66;100.00;99185.09;5047905;28;20072;-79
2021/04/11 07:56:23;;;;;;;;;;;;;;;8.45;100.00;99183.22;5024966;28;19976;-85
2021/04/11 07:58:56;;;;;;;;;;;;;;;8.11;100.00;99182.16;5040482;28;19937;-84
2021/04/11 08:01:41;;;;;;;;;;;;;;;8.21;100.00;99178.53;5031315;28;20412;-82
2021/04/11 08:04:08;;;;;;;;;;;;;;;8.19;100.00;99180.16;5018154;28;19925;-83
2021/04/11 08:06:53;;;;;;;;;;;;;;;8.33;100.00;99191.25;5030862;28;20406;-84
2021/04/11 08:09:19;;;;;;;;;;;;;;;7.90;100.00;99182.25;5010042;28;20351;-85
2021/04/11 08:12:05;;;;;;;;;;;;;;;7.86;100.00;99189.03;5020471;28;19936;-84
2021/04/11 08:14:50;;;;;;;;;;;;;;;7.73;100.00;99190.63;5041819;28;19925;-88
2021/04/11 08:17:36;;;;;;;;;;;;;;;7.58;100.00;99184.34;4994579;28;19995;-91
2021/04/11 08:20:06;;;;;;;;;;;;;;;6.99;100.00;99194.31;5009344;28;19925;-88
2021/04/11 08:22:35;;;;;;;;;;;;;;;7.51;100.00;99194.69;5049408;28;19931;-88
2021/04/11 08:25:11;;;;;;;;;;;;;;;7.92;100.00;99193.75;5073515;28;19982;-90
2021/04/11 08:27:44;;;;;;;;;;;;;;;8.25;100.00;99196.06;5066446;28;19998;-91
2021/04/11 08:30:11;;;;;;;;;;;;;;;8.92;100.00;99193.66;5035495;28;19929;-94
2021/04/11 08:33:01;;;;;;;;;;;;;;;8.96;100.00;99191.66;5038364;28;20401;-90
2021/04/11 08:35:39;;;;;;;;;;;;;;;9.18;100.00;99191.47;5008081;28;19941;-85
2021/04/11 08:38:32;;;;;;;;;;;;;;;9.04;100.00;99198.72;5004549;28;19936;-84
2021/04/11 08:41:02;;;;;;;;;;;;;;;8.82;100.00;99197.31;5008209;28;19933;-85
2021/04/11 08:43:34;;;;;;;;;;;;;;;8.19;100.00;99217.13;5002561;28;19934;-83
2021/04/11 08:46:08;;;;;;;;;;;;;;;7.29;100.00;99216.94;4993758;28;19933;-84
2021/04/11 08:48:37;;;;;;;;;;;;;;;6.77;100.00;99222.47;4983227;28;19930;-83
2021/04/11 08:51:12;;;;;;;;;;;;;;;6.92;100.00;99215.75;5005904;28;19925;-83
2021/04/11 08:53:56;;;;;;;;;;;;;;;5.95;100.00;99228.16;4992804;28;19995;-84
2021/04/11 08:56:26;;;;;;;;;;;;;;;5.92;100.00;99223.38;5000621;28;19943;-83
2021/04/11 08:59:11;;;;;;;;;;;;;;;5.92;100.00;99229.72;5009124;28;19980;-84
2021/04/11 09:01:45;;;;;;;;;;;;;;;6.08;100.00;99229.38;4976724;28;19925;-83
2021/04/11 09:04:22;;;;;;;;;;;;;;;5.78;100.00;99237.13;5006294;28;19929;-78
2021/04/11 09:06:59;;;;;;;;;;;;;;;6.39;100.00;99228.72;5000862;28;19933;-78
2021/04/11 09:09:33;;;;;;;;;;;;;;;6.51;100.00;99239.47;5002240;28;20357;-78
2021/04/11 09:12:18;;;;;;;;;;;;;;;6.45;100.00;99238.25;5019578;28;19963;-79
2021/04/11 09:15:02;;;;;;;;;;;;;;;6.17;100.00;99238.13;5062266;28;19951;-79
2021/04/11 09:17:40;;;;;;;;;;;;;;;6.74;100.00;99246.25;5056824;28;20143;-78
2021/04/11 09:20:17;;;;;;;;;;;;;;;6.98;100.00;99239.94;5061129;28;20322;-79
2021/04/11 09:22:49;;;;;;;;;;;;;;;7.23;100.00;99245.53;5063400;28;19936;-79
2021/04/11 09:25:20;;;;;;;;;;;;;;;6.95;100.00;99242.75;5062722;28;19971;-78
2021/04/11 09:27:58;;;;;;;;;;;;;;;6.66;100.00;99244.69;5065182;28;20655;-80
2021/04/11 09:30:44;;;;;;;;;;;;;;;6.98;100.00;99250.28;5063820;28;19929;-89
2021/04/11 09:33:13;;;;;;;;;;;;;;;7.00;100.00;99245.09;5052122;28;19967;-77
2021/04/11 09:35:49;;;;;;;;;;;;;;;6.69;100.00;99248.63;5048005;28;19982;-78
2021/04/11 09:38:37;;;;;;;;;;;;;;;6.51;100.00;99253.34;5055798;28;19933;-78
2021/04/11 09:41:11;;;;;;;;;;;;;;;6.58;100.00;99253.34;5053623;28;19932;-79
2021/04/11 09:44:00;;;;;;;;;;;;;;;6.58;100.00;99264.47;5056128;28;19929;-78
2021/04/11 09:46:47;;;;;;;;;;;;;;;6.20;100.00;99254.00;5056581;28;19925;-77
2021/04/11 09:49:22;;;;;;;;;;;;;;;6.01;100.00;99257.09;5034740;28;19931;-78
2021/04/11 09:52:04;;;;;;;;;;;;;;;5.85;100.00;99267.69;5042066;28;19933;-79
2021/04/11 09:54:37;;;;;;;;;;;;;;;6.20;100.00;99273.44;5051420;28;19928;-79
2021/04/11 09:57:26;;;;;;;;;;;;;;;6.09;100.00;99265.06;5051491;28;19925;-79
2021/04/11 10:00:01;;;;;;;;;;;;;;;5.37;100.00;99278.84;5051797;28;19929;-79
2021/04/11 10:02:50;;;;;;;;;;;;;;;5.50;100.00;99277.34;5056327;28;20336;-79
2021/04/11 10:05:20;;;;;;;;;;;;;;;5.65;100.00;99269.13;5056053;28;19932;-79
2021/04/11 10:08:05;;;;;;;;;;;;;;;5.52;100.00;99275.00;5056239;28;19932;-78
2021/04/11 10:10:32;;;;;;;;;;;;;;;5.34;100.00;99273.25;5054862;28;20265;-79
2021/04/11 10:13:07;;;;;;;;;;;;;;;5.24;100.00;99274.75;5055965;28;19924;-79
2021/04/11 10:15:34;;;;;;;;;;;;;;;5.26;100.00;99279.91;5055996;28;19933;-79
2021/04/11 10:18:13;;;;;;;;;;;;;;;5.30;100.00;99278.75;5052964;28;20026;-79
2021/04/11 10:20:49;;;;;;;;;;;;;;;5.31;100.00;99274.84;5055699;28;20884;-79
2021/04/11 10:23:34;;;;;;;;;;;;;;;5.48;100.00;99268.59;5052654;28;19946;-80
2021/04/11 10:26:04;;;;;;;;;;;;;;;5.86;100.00;99272.06;5055921;28;19931;-81
2021/04/11 10:28:40;;;;;;;;;;;;;;;5.91;100.00;99274.50;5054028;28;19932;-81
2021/04/11 10:31:25;;;;;;;;;;;;;;;5.98;100.00;99274.53;5055717;28;19931;-81
2021/04/11 10:34:10;;;;;;;;;;;;;;;5.80;100.00;99276.38;5062953;28;19950;-81
2021/04/11 10:37:06;;;;;;;;;;;;;;;5.89;100.00;99268.53;5072747;28;20326;-80
2021/04/11 10:39:52;;;;;;;;;;;;;;;5.91;100.00;99263.41;5056081;28;20399;-81
2021/04/11 10:42:25;;;;;;;;;;;;;;;5.55;100.00;99276.19;5062375;28;19932;-80
2021/04/11 10:44:51;;;;;;;;;;;;;;;5.94;100.00;99277.25;5057628;28;20506;-80
2021/04/11 10:47:37;;;;;;;;;;;;;;;6.10;100.00;99269.44;5065297;28;19924;-80
2021/04/11 10:50:13;;;;;;;;;;;;;;;5.78;100.00;99264.84;5085109;28;19956;-79
2021/04/11 10:52:49;;;;;;;;;;;;;;;4.86;100.00;99272.41;5071148;28;20029;-79
2021/04/11 10:55:15;;;;;;;;;;;;;;;5.01;100.00;99282.44;5092598;28;19951;-80
2021/04/11 10:57:54;;;;;;;;;;;;;;;4.85;100.00;99268.06;5054824;28;19939;-79
2021/04/11 11:00:40;;;;;;;;;;;;;;;5.14;100.00;99274.66;5052415;28;20486;-80
2021/04/11 11:03:10;;;;;;;;;;;;;;;5.63;100.00;99274.25;5060269;28;19985;-79
2021/04/11 11:05:45;;;;;;;;;;;;;;;5.90;100.00;99273.69;5068032;28;19955;-80
2021/04/11 11:08:30;;;;;;;;;;;;;;;6.15;100.00;99279.38;5104898;28;19943;-81
2021/04/11 11:11:11;;;;;;;;;;;;;;;4.95;100.00;99283.97;5093314;28;19933;-80
2021/04/11 11:13:57;;;;;;;;;;;;;;;4.48;100.00;99292.19;5054795;28;19971;-80
2021/04/11 11:16:42;;;;;;;;;;;;;;;4.68;100.00;99293.59;5070828;28;19962;-80
2021/04/11 11:19:12;;;;;;;;;;;;;;;5.03;100.00;99291.19;5072946;28;19925;-81
2021/04/11 11:22:01;;;;;;;;;;;;;;;5.45;100.00;99285.22;5057438;28;20026;-81
2021/04/11 11:24:45;;;;;;;;;;;;;;;5.44;100.00;99295.50;5052623;28;19979;-81
2021/04/11 11:27:32;;;;;;;;;;;;;;;5.23;100.00;99289.78;5042867;28;19925;-80
2021/04/11 11:29:59;;;;;;;;;;;;;;;5.22;100.00;99295.72;5053261;28;20015;-80
2021/04/11 11:32:29;;;;;;;;;;;;;;;5.05;100.00;99283.31;5068780;28;19925;-80
2021/04/11 11:35:00;;;;;;;;;;;;;;;4.98;100.00;99288.75;5052007;28;19925;-81
2021/04/11 11:37:45;;;;;;;;;;;;;;;5.06;100.00;99290.41;5052464;28;19925;-80
2021/04/11 11:40:24;;;;;;;;;;;;;;;5.02;100.00;99288.78;5052984;28;19929;-80
2021/04/11 11:42:56;;;;;;;;;;;;;;;5.34;100.00;99290.69;5053588;28;20372;-81
2021/04/11 11:45:23;;;;;;;;;;;;;;;5.45;100.00;99286.00;5053091;28;19924;-80
2021/04/11 11:47:55;;;;;;;;;;;;;;;5.44;100.00;99291.94;5053406;28;19929;-80
2021/04/11 11:50:36;;;;;;;;;;;;;;;5.10;100.00;99293.25;5053346;28;19971;-80
2021/04/11 11:53:12;;;;;;;;;;;;;;;5.20;100.00;99301.66;5051961;28;19971;-80
2021/04/11 11:55:44;;;;;;;;;;;;;;;5.01;100.00;99303.84;5053289;28;20293;-80
2021/04/11 11:58:17;;;;;;;;;;;;;;;5.20;100.00;99300.84;5053368;28;19925;-80
2021/04/11 12:00:46;;;;;;;;;;;;;;;5.31;100.00;99296.19;5053175;28;19979;-80
2021/04/11 12:03:29;;;;;;;;;;;;;;;5.04;100.00;99287.22;5052070;28;19947;-80
2021/04/11 12:06:12;;;;;;;;;;;;;;;5.15;100.00;99304.75;5053078;28;20027;-80
2021/04/11 12:08:54;;;;;;;;;;;;;;;5.14;100.00;99294.84;5052888;28;19979;-80
2021/04/11 12:11:39;;;;;;;;;;;;;;;5.20;100.00;99296.09;5052966;28;19931;-80
2021/04/11 12:14:12;;;;;;;;;;;;;;;5.36;100.00;99302.16;5053189;28;19984;-80
2021/04/11 12:16:42;;;;;;;;;;;;;;;5.31;100.00;99297.00;5052077;28;20363;-80
2021/04/11 12:19:20;;;;;;;;;;;;;;;5.06;100.00;99295.16;5052983;28;20459;-80
2021/04/11 12:22:02;;;;;;;;;;;;;;;4.95;100.00;99295.06;5053006;28;20011;-80
2021/04/11 12:24:54;;;;;;;;;;;;;;;5.01;100.00;99307.38;5052608;28;20043;-80
2021/04/11 12:27:29;;;;;;;;;;;;;;;5.15;100.00;99293.66;5052956;28;19925;-81
2021/04/11 12:29:58;;;;;;;;;;;;;;;5.21;100.00;99303.22;5058935;28;19928;-80
2021/04/11 12:32:27;;;;;;;;;;;;;;;5.30;100.00;99303.69;5061746;28;19931;-80
2021/04/11 12:35:13;;;;;;;;;;;;;;;5.25;100.00;99300.50;5067734;28;19956;-81
2021/04/11 12:37:46;;;;;;;;;;;;;;;5.53;100.00;99312.59;5068844;28;19974;-81
2021/04/11 12:40:31;;;;;;;;;;;;;;;5.51;100.00;99312.19;5066121;28;19960;-81
2021/04/11 12:43:14;;;;;;;;;;;;;;;5.57;100.00;99316.19;5053379;28;20459;-81
2021/04/11 12:45:45;;;;;;;;;;;;;;;5.54;100.00;99305.88;5045085;28;20292;-81
2021/04/11 12:48:12;;;;;;;;;;;;;;;5.43;100.00;99305.00;5052461;28;19935;-81
2021/04/11 12:50:57;;;;;;;;;;;;;;;5.73;100.00;99317.88;5052046;28;19925;-80
2021/04/11 12:53:36;;;;;;;;;;;;;;;5.70;100.00;99308.38;5052817;28;19932;-79
2021/04/11 12:56:33;;;;;;;;;;;;;;;5.72;100.00;99316.31;5083741;28;20498;-81
2021/04/11 12:59:32;;;;;;;;;;;;;;;5.94;100.00;99318.09;5055813;28;20521;-78
2021/04/11 13:02:15;;;;;;;;;;;;;;;5.84;100.00;99314.06;5027211;28;19933;-81
2021/04/11 13:04:51;;;;;;;;;;;;;;;5.55;100.00;99318.56;5043107;28;19925;-80
2021/04/11 13:07:25;;;;;;;;;;;;;;;5.82;100.00;99313.63;5025063;28;20387;-80
2021/04/11 13:10:00;;;;;;;;;;;;;;;5.98;100.00;99307.81;5024994;28;19925;-80
2021/04/11 13:12:26;;;;;;;;;;;;;;;5.78;100.00;99309.22;5030686;28;19936;-80
2021/04/11 13:15:03;;;;;;;;;;;;;;;5.83;100.00;99303.34;5030650;28;20310;-80
2021/04/11 13:17:32;;;;;;;;;;;;;;;5.78;100.00;99303.66;5031003;28;19929;-80
2021/04/11 13:20:01;;;;;;;;;;;;;;;5.91;100.00;99303.00;5024074;28;20300;-80
2021/04/11 13:22:35;;;;;;;;;;;;;;;5.70;100.00;99313.13;5030937;28;20027;-82
2021/04/11 13:25:14;;;;;;;;;;;;;;;5.45;100.00;99324.81;5012065;28;20368;-79
2021/04/11 13:28:06;;;;;;;;;;;;;;;5.30;100.00;99327.84;5031342;28;19948;-81
2021/04/11 13:30:38;;;;;;;;;;;;;;;5.39;100.00;99325.56;5031457;28;19940;-81